sensor_id;sensor_type;location;lat;lon;timestamp;P1;durP1;ratioP1;P2;durP2;ratioP2
24637;SDS011;12773;50.162;8.548;2023-06-24T00:01:30;7.67;;;6.87;;
24637;SDS011;12773;50.162;8.548;2023-06-24T00:04:13;12.00;;;6.80;;
24637;SDS011;12773;50.162;8.548;2023-06-24T00:07:02;11.80;;;6.62;;
24637;SDS011;12773;50.162;8.548;2023-06-24T00:09:50;7.83;;;6.62;;
24637;SDS011;12773;50.162;8.548;2023-06-24T00:12:37;8.73;;;6.90;;
24637;SDS011;12773;50.162;8.548;2023-06-24T00:15:25;8.00;;;7.08;;
24637;SDS011;12773;50.162;8.548;2023-06-24T00:18:13;10.40;;;7.05;;
24637;SDS011;12773;50.162;8.548;2023-06-24T00:21:00;10.35;;;7.40;;
24637;SDS011;12773;50.162;8.548;2023-06-24T00:23:48;7.90;;;6.58;;
24637;SDS011;12773;50.162;8.548;2023-06-24T00:26:36;9.90;;;7.00;;
24637;SDS011;12773;50.162;8.548;2023-06-24T00:29:24;12.53;;;7.17;;
24637;SDS011;12773;50.162;8.548;2023-06-24T00:32:11;8.20;;;6.65;;
24637;SDS011;12773;50.162;8.548;2023-06-24T00:34:59;8.15;;;6.70;;
24637;SDS011;12773;50.162;8.548;2023-06-24T00:37:46;9.63;;;6.70;;
24637;SDS011;12773;50.162;8.548;2023-06-24T00:40:34;12.40;;;7.03;;
24637;SDS011;12773;50.162;8.548;2023-06-24T00:43:21;10.45;;;7.20;;
24637;SDS011;12773;50.162;8.548;2023-06-24T00:46:09;10.38;;;6.60;;
24637;SDS011;12773;50.162;8.548;2023-06-24T00:48:57;8.23;;;6.33;;
24637;SDS011;12773;50.162;8.548;2023-06-24T00:51:45;10.60;;;6.58;;
24637;SDS011;12773;50.162;8.548;2023-06-24T00:54:36;9.58;;;6.90;;
24637;SDS011;12773;50.162;8.548;2023-06-24T00:57:23;10.03;;;6.78;;
24637;SDS011;12773;50.162;8.548;2023-06-24T01:00:11;10.15;;;6.35;;
24637;SDS011;12773;50.162;8.548;2023-06-24T01:03:00;9.80;;;6.30;;
24637;SDS011;12773;50.162;8.548;2023-06-24T01:05:49;8.98;;;6.85;;
24637;SDS011;12773;50.162;8.548;2023-06-24T01:08:36;10.43;;;6.50;;
24637;SDS011;12773;50.162;8.548;2023-06-24T01:11:24;9.55;;;6.42;;
24637;SDS011;12773;50.162;8.548;2023-06-24T01:14:11;9.08;;;6.85;;
24637;SDS011;12773;50.162;8.548;2023-06-24T01:16:59;9.98;;;6.85;;
24637;SDS011;12773;50.162;8.548;2023-06-24T01:20:02;9.03;;;6.58;;
24637;SDS011;12773;50.162;8.548;2023-06-24T01:23:01;8.00;;;6.30;;
24637;SDS011;12773;50.162;8.548;2023-06-24T01:26:03;8.30;;;6.17;;
24637;SDS011;12773;50.162;8.548;2023-06-24T01:32:41;10.53;;;6.33;;
24637;SDS011;12773;50.162;8.548;2023-06-24T01:35:32;9.50;;;6.50;;
24637;SDS011;12773;50.162;8.548;2023-06-24T01:38:24;7.87;;;6.55;;
24637;SDS011;12773;50.162;8.548;2023-06-24T01:41:13;8.65;;;5.83;;
24637;SDS011;12773;50.162;8.548;2023-06-24T01:44:03;9.08;;;6.40;;
24637;SDS011;12773;50.162;8.548;2023-06-24T01:46:51;9.15;;;6.37;;
24637;SDS011;12773;50.162;8.548;2023-06-24T01:49:42;10.05;;;6.55;;
24637;SDS011;12773;50.162;8.548;2023-06-24T01:52:31;11.30;;;5.97;;
24637;SDS011;12773;50.162;8.548;2023-06-24T01:55:21;8.20;;;6.53;;
24637;SDS011;12773;50.162;8.548;2023-06-24T01:58:10;10.65;;;6.60;;
24637;SDS011;12773;50.162;8.548;2023-06-24T02:00:59;8.05;;;5.60;;
24637;SDS011;12773;50.162;8.548;2023-06-24T02:03:49;10.08;;;6.55;;
24637;SDS011;12773;50.162;8.548;2023-06-24T02:06:38;9.03;;;6.10;;
24637;SDS011;12773;50.162;8.548;2023-06-24T02:09:28;10.20;;;6.55;;
24637;SDS011;12773;50.162;8.548;2023-06-24T02:12:18;8.48;;;6.40;;
24637;SDS011;12773;50.162;8.548;2023-06-24T02:15:06;9.78;;;6.30;;
24637;SDS011;12773;50.162;8.548;2023-06-24T02:17:55;9.88;;;6.22;;
24637;SDS011;12773;50.162;8.548;2023-06-24T02:20:44;7.53;;;6.25;;
24637;SDS011;12773;50.162;8.548;2023-06-24T02:23:34;10.90;;;6.05;;
24637;SDS011;12773;50.162;8.548;2023-06-24T02:26:23;12.40;;;6.05;;
24637;SDS011;12773;50.162;8.548;2023-06-24T02:29:12;8.38;;;6.22;;
24637;SDS011;12773;50.162;8.548;2023-06-24T02:32:00;8.90;;;6.45;;
24637;SDS011;12773;50.162;8.548;2023-06-24T02:34:47;9.30;;;6.42;;
24637;SDS011;12773;50.162;8.548;2023-06-24T02:37:35;8.90;;;5.65;;
24637;SDS011;12773;50.162;8.548;2023-06-24T02:40:22;8.68;;;5.85;;
24637;SDS011;12773;50.162;8.548;2023-06-24T02:43:09;9.28;;;5.85;;
24637;SDS011;12773;50.162;8.548;2023-06-24T02:45:57;10.63;;;5.97;;
24637;SDS011;12773;50.162;8.548;2023-06-24T02:48:47;8.95;;;6.10;;
24637;SDS011;12773;50.162;8.548;2023-06-24T02:51:36;9.03;;;6.15;;
24637;SDS011;12773;50.162;8.548;2023-06-24T02:54:25;9.20;;;5.90;;
24637;SDS011;12773;50.162;8.548;2023-06-24T02:57:13;7.78;;;5.58;;
24637;SDS011;12773;50.162;8.548;2023-06-24T03:00:02;7.33;;;5.12;;
24637;SDS011;12773;50.162;8.548;2023-06-24T03:02:57;7.83;;;5.47;;
24637;SDS011;12773;50.162;8.548;2023-06-24T03:05:45;8.25;;;5.55;;
24637;SDS011;12773;50.162;8.548;2023-06-24T03:08:35;8.18;;;5.60;;
24637;SDS011;12773;50.162;8.548;2023-06-24T03:11:22;8.58;;;5.60;;
24637;SDS011;12773;50.162;8.548;2023-06-24T03:14:10;9.38;;;5.80;;
24637;SDS011;12773;50.162;8.548;2023-06-24T03:16:58;7.03;;;5.62;;
24637;SDS011;12773;50.162;8.548;2023-06-24T03:19:45;7.97;;;5.37;;
24637;SDS011;12773;50.162;8.548;2023-06-24T03:22:33;10.95;;;5.25;;
24637;SDS011;12773;50.162;8.548;2023-06-24T03:25:21;11.93;;;5.35;;
24637;SDS011;12773;50.162;8.548;2023-06-24T03:28:08;11.80;;;6.25;;
24637;SDS011;12773;50.162;8.548;2023-06-24T03:30:57;8.55;;;5.72;;
24637;SDS011;12773;50.162;8.548;2023-06-24T03:33:44;10.48;;;5.65;;
24637;SDS011;12773;50.162;8.548;2023-06-24T03:36:32;6.53;;;5.37;;
24637;SDS011;12773;50.162;8.548;2023-06-24T03:39:21;7.70;;;5.30;;
24637;SDS011;12773;50.162;8.548;2023-06-24T03:42:08;6.70;;;5.25;;
24637;SDS011;12773;50.162;8.548;2023-06-24T03:44:55;6.85;;;5.25;;
24637;SDS011;12773;50.162;8.548;2023-06-24T03:47:43;10.30;;;5.80;;
24637;SDS011;12773;50.162;8.548;2023-06-24T03:50:30;9.88;;;5.70;;
24637;SDS011;12773;50.162;8.548;2023-06-24T03:53:18;10.72;;;6.12;;
24637;SDS011;12773;50.162;8.548;2023-06-24T03:56:06;12.20;;;6.42;;
24637;SDS011;12773;50.162;8.548;2023-06-24T03:58:53;8.80;;;6.08;;
24637;SDS011;12773;50.162;8.548;2023-06-24T04:01:40;14.70;;;5.25;;
24637;SDS011;12773;50.162;8.548;2023-06-24T04:04:28;9.83;;;5.53;;
24637;SDS011;12773;50.162;8.548;2023-06-24T04:07:16;9.55;;;5.45;;
24637;SDS011;12773;50.162;8.548;2023-06-24T04:10:08;9.25;;;5.42;;
24637;SDS011;12773;50.162;8.548;2023-06-24T04:12:56;7.30;;;5.65;;
24637;SDS011;12773;50.162;8.548;2023-06-24T04:15:43;11.73;;;6.50;;
24637;SDS011;12773;50.162;8.548;2023-06-24T04:18:31;9.08;;;6.05;;
24637;SDS011;12773;50.162;8.548;2023-06-24T04:21:18;7.33;;;5.58;;
24637;SDS011;12773;50.162;8.548;2023-06-24T04:24:06;8.60;;;5.45;;
24637;SDS011;12773;50.162;8.548;2023-06-24T04:26:53;9.93;;;5.95;;
24637;SDS011;12773;50.162;8.548;2023-06-24T04:29:41;8.33;;;5.20;;
24637;SDS011;12773;50.162;8.548;2023-06-24T04:32:28;9.88;;;5.42;;
24637;SDS011;12773;50.162;8.548;2023-06-24T04:35:16;9.40;;;5.28;;
24637;SDS011;12773;50.162;8.548;2023-06-24T04:38:04;8.93;;;5.37;;
24637;SDS011;12773;50.162;8.548;2023-06-24T04:40:51;9.05;;;5.40;;
24637;SDS011;12773;50.162;8.548;2023-06-24T04:43:39;7.47;;;5.50;;
24637;SDS011;12773;50.162;8.548;2023-06-24T04:46:27;7.05;;;4.95;;
24637;SDS011;12773;50.162;8.548;2023-06-24T04:49:14;7.12;;;5.67;;
24637;SDS011;12773;50.162;8.548;2023-06-24T04:52:02;7.00;;;4.90;;
24637;SDS011;12773;50.162;8.548;2023-06-24T04:54:49;9.13;;;5.85;;
24637;SDS011;12773;50.162;8.548;2023-06-24T04:57:37;8.30;;;5.33;;
24637;SDS011;12773;50.162;8.548;2023-06-24T05:00:25;6.55;;;5.08;;
24637;SDS011;12773;50.162;8.548;2023-06-24T05:03:12;7.83;;;5.80;;
24637;SDS011;12773;50.162;8.548;2023-06-24T05:06:00;9.10;;;6.42;;
24637;SDS011;12773;50.162;8.548;2023-06-24T05:08:48;11.15;;;6.33;;
24637;SDS011;12773;50.162;8.548;2023-06-24T05:11:35;9.28;;;6.75;;
24637;SDS011;12773;50.162;8.548;2023-06-24T05:14:22;8.73;;;6.65;;
24637;SDS011;12773;50.162;8.548;2023-06-24T05:17:10;10.60;;;6.35;;
24637;SDS011;12773;50.162;8.548;2023-06-24T05:19:57;11.90;;;7.00;;
24637;SDS011;12773;50.162;8.548;2023-06-24T05:22:45;9.30;;;6.00;;
24637;SDS011;12773;50.162;8.548;2023-06-24T05:25:32;12.70;;;7.28;;
24637;SDS011;12773;50.162;8.548;2023-06-24T05:28:22;11.35;;;7.30;;
24637;SDS011;12773;50.162;8.548;2023-06-24T05:31:09;10.63;;;7.58;;
24637;SDS011;12773;50.162;8.548;2023-06-24T05:33:57;9.43;;;7.22;;
24637;SDS011;12773;50.162;8.548;2023-06-24T05:36:44;12.05;;;7.58;;
24637;SDS011;12773;50.162;8.548;2023-06-24T05:39:32;10.10;;;7.40;;
24637;SDS011;12773;50.162;8.548;2023-06-24T05:42:20;10.53;;;7.33;;
24637;SDS011;12773;50.162;8.548;2023-06-24T05:45:08;11.20;;;7.80;;
24637;SDS011;12773;50.162;8.548;2023-06-24T05:47:56;11.75;;;7.95;;
24637;SDS011;12773;50.162;8.548;2023-06-24T05:50:43;12.45;;;7.67;;
24637;SDS011;12773;50.162;8.548;2023-06-24T05:53:31;11.80;;;7.65;;
24637;SDS011;12773;50.162;8.548;2023-06-24T05:56:19;12.45;;;7.87;;
24637;SDS011;12773;50.162;8.548;2023-06-24T05:59:09;12.03;;;8.18;;
24637;SDS011;12773;50.162;8.548;2023-06-24T06:01:57;12.98;;;7.58;;
24637;SDS011;12773;50.162;8.548;2023-06-24T06:04:44;10.55;;;7.28;;
24637;SDS011;12773;50.162;8.548;2023-06-24T06:07:32;9.48;;;7.40;;
24637;SDS011;12773;50.162;8.548;2023-06-24T06:10:20;12.28;;;7.78;;
24637;SDS011;12773;50.162;8.548;2023-06-24T06:13:08;10.43;;;7.08;;
24637;SDS011;12773;50.162;8.548;2023-06-24T06:15:56;11.83;;;7.85;;
24637;SDS011;12773;50.162;8.548;2023-06-24T06:18:43;10.85;;;7.53;;
24637;SDS011;12773;50.162;8.548;2023-06-24T06:21:31;11.08;;;7.10;;
24637;SDS011;12773;50.162;8.548;2023-06-24T06:24:19;9.65;;;6.72;;
24637;SDS011;12773;50.162;8.548;2023-06-24T06:27:10;11.35;;;7.78;;
24637;SDS011;12773;50.162;8.548;2023-06-24T06:29:57;10.20;;;6.75;;
24637;SDS011;12773;50.162;8.548;2023-06-24T06:32:45;11.38;;;7.58;;
24637;SDS011;12773;50.162;8.548;2023-06-24T06:35:32;9.40;;;6.70;;
24637;SDS011;12773;50.162;8.548;2023-06-24T06:38:20;8.88;;;6.90;;
24637;SDS011;12773;50.162;8.548;2023-06-24T06:41:07;8.53;;;6.62;;
24637;SDS011;12773;50.162;8.548;2023-06-24T06:43:55;10.45;;;7.80;;
24637;SDS011;12773;50.162;8.548;2023-06-24T06:46:42;12.45;;;7.10;;
24637;SDS011;12773;50.162;8.548;2023-06-24T06:49:29;10.25;;;7.20;;
24637;SDS011;12773;50.162;8.548;2023-06-24T06:52:17;11.30;;;7.70;;
24637;SDS011;12773;50.162;8.548;2023-06-24T06:55:05;10.98;;;6.90;;
24637;SDS011;12773;50.162;8.548;2023-06-24T06:57:52;11.95;;;7.12;;
24637;SDS011;12773;50.162;8.548;2023-06-24T07:00:41;9.18;;;6.50;;
24637;SDS011;12773;50.162;8.548;2023-06-24T07:03:28;9.13;;;7.03;;
24637;SDS011;12773;50.162;8.548;2023-06-24T07:06:17;11.75;;;7.12;;
24637;SDS011;12773;50.162;8.548;2023-06-24T07:09:05;10.98;;;7.53;;
24637;SDS011;12773;50.162;8.548;2023-06-24T07:11:53;10.45;;;7.97;;
24637;SDS011;12773;50.162;8.548;2023-06-24T07:14:41;11.45;;;6.90;;
24637;SDS011;12773;50.162;8.548;2023-06-24T07:17:28;12.82;;;7.72;;
24637;SDS011;12773;50.162;8.548;2023-06-24T07:20:15;11.85;;;8.05;;
24637;SDS011;12773;50.162;8.548;2023-06-24T07:23:03;13.45;;;8.10;;
24637;SDS011;12773;50.162;8.548;2023-06-24T07:25:50;10.68;;;7.53;;
24637;SDS011;12773;50.162;8.548;2023-06-24T07:28:38;11.40;;;7.70;;
24637;SDS011;12773;50.162;8.548;2023-06-24T07:31:25;10.28;;;7.72;;
24637;SDS011;12773;50.162;8.548;2023-06-24T07:34:12;11.43;;;7.25;;
24637;SDS011;12773;50.162;8.548;2023-06-24T07:37:00;10.50;;;7.15;;
24637;SDS011;12773;50.162;8.548;2023-06-24T07:39:49;9.05;;;7.08;;
24637;SDS011;12773;50.162;8.548;2023-06-24T07:42:36;10.15;;;6.72;;
24637;SDS011;12773;50.162;8.548;2023-06-24T07:45:23;10.23;;;7.40;;
24637;SDS011;12773;50.162;8.548;2023-06-24T07:48:11;9.53;;;6.28;;
24637;SDS011;12773;50.162;8.548;2023-06-24T07:50:58;12.85;;;6.97;;
24637;SDS011;12773;50.162;8.548;2023-06-24T07:53:46;10.30;;;6.50;;
24637;SDS011;12773;50.162;8.548;2023-06-24T07:56:34;8.05;;;6.60;;
24637;SDS011;12773;50.162;8.548;2023-06-24T07:59:21;12.25;;;6.65;;
24637;SDS011;12773;50.162;8.548;2023-06-24T08:02:10;12.47;;;6.40;;
24637;SDS011;12773;50.162;8.548;2023-06-24T08:04:57;7.42;;;5.97;;
24637;SDS011;12773;50.162;8.548;2023-06-24T08:07:45;8.03;;;6.03;;
24637;SDS011;12773;50.162;8.548;2023-06-24T08:10:33;8.75;;;6.00;;
24637;SDS011;12773;50.162;8.548;2023-06-24T08:13:20;8.23;;;5.55;;
24637;SDS011;12773;50.162;8.548;2023-06-24T08:16:08;7.95;;;5.70;;
24637;SDS011;12773;50.162;8.548;2023-06-24T08:18:56;9.10;;;5.90;;
24637;SDS011;12773;50.162;8.548;2023-06-24T08:21:43;10.20;;;5.35;;
24637;SDS011;12773;50.162;8.548;2023-06-24T08:24:31;6.33;;;4.70;;
24637;SDS011;12773;50.162;8.548;2023-06-24T08:27:19;5.58;;;4.35;;
24637;SDS011;12773;50.162;8.548;2023-06-24T08:30:06;7.40;;;4.70;;
24637;SDS011;12773;50.162;8.548;2023-06-24T08:32:55;8.58;;;5.17;;
24637;SDS011;12773;50.162;8.548;2023-06-24T08:35:43;8.35;;;5.45;;
24637;SDS011;12773;50.162;8.548;2023-06-24T08:38:30;8.50;;;5.70;;
24637;SDS011;12773;50.162;8.548;2023-06-24T08:41:17;9.20;;;6.10;;
24637;SDS011;12773;50.162;8.548;2023-06-24T08:44:05;8.30;;;5.92;;
24637;SDS011;12773;50.162;8.548;2023-06-24T08:46:52;7.92;;;5.50;;
24637;SDS011;12773;50.162;8.548;2023-06-24T08:49:47;10.43;;;6.08;;
24637;SDS011;12773;50.162;8.548;2023-06-24T08:52:40;11.05;;;5.55;;
24637;SDS011;12773;50.162;8.548;2023-06-24T08:55:36;10.35;;;5.90;;
24637;SDS011;12773;50.162;8.548;2023-06-24T08:58:26;8.98;;;5.95;;
24637;SDS011;12773;50.162;8.548;2023-06-24T09:01:21;9.45;;;5.83;;
24637;SDS011;12773;50.162;8.548;2023-06-24T09:04:09;9.38;;;6.85;;
24637;SDS011;12773;50.162;8.548;2023-06-24T09:06:57;8.95;;;5.50;;
24637;SDS011;12773;50.162;8.548;2023-06-24T09:09:45;11.00;;;5.80;;
24637;SDS011;12773;50.162;8.548;2023-06-24T09:12:32;9.58;;;5.12;;
24637;SDS011;12773;50.162;8.548;2023-06-24T09:15:21;9.20;;;6.55;;
24637;SDS011;12773;50.162;8.548;2023-06-24T09:18:08;11.10;;;5.22;;
24637;SDS011;12773;50.162;8.548;2023-06-24T09:20:57;9.73;;;5.53;;
24637;SDS011;12773;50.162;8.548;2023-06-24T09:23:46;10.65;;;5.85;;
24637;SDS011;12773;50.162;8.548;2023-06-24T09:26:33;9.55;;;5.00;;
24637;SDS011;12773;50.162;8.548;2023-06-24T09:29:22;9.53;;;5.17;;
24637;SDS011;12773;50.162;8.548;2023-06-24T09:32:15;7.22;;;5.12;;
24637;SDS011;12773;50.162;8.548;2023-06-24T09:35:02;9.25;;;4.90;;
24637;SDS011;12773;50.162;8.548;2023-06-24T09:37:52;6.50;;;5.05;;
24637;SDS011;12773;50.162;8.548;2023-06-24T09:40:41;11.03;;;5.37;;
24637;SDS011;12773;50.162;8.548;2023-06-24T09:43:28;9.58;;;6.30;;
24637;SDS011;12773;50.162;8.548;2023-06-24T09:46:16;9.73;;;6.78;;
24637;SDS011;12773;50.162;8.548;2023-06-24T09:49:04;8.83;;;5.87;;
24637;SDS011;12773;50.162;8.548;2023-06-24T09:51:54;9.65;;;5.72;;
24637;SDS011;12773;50.162;8.548;2023-06-24T09:54:45;6.95;;;5.05;;
24637;SDS011;12773;50.162;8.548;2023-06-24T09:57:35;8.35;;;5.45;;
24637;SDS011;12773;50.162;8.548;2023-06-24T10:00:24;9.25;;;5.85;;
24637;SDS011;12773;50.162;8.548;2023-06-24T10:03:12;11.93;;;5.78;;
24637;SDS011;12773;50.162;8.548;2023-06-24T10:06:01;7.30;;;5.00;;
24637;SDS011;12773;50.162;8.548;2023-06-24T10:08:49;8.03;;;5.37;;
24637;SDS011;12773;50.162;8.548;2023-06-24T10:11:37;8.85;;;4.87;;
24637;SDS011;12773;50.162;8.548;2023-06-24T10:14:24;6.20;;;5.35;;
24637;SDS011;12773;50.162;8.548;2023-06-24T10:17:12;8.35;;;5.67;;
24637;SDS011;12773;50.162;8.548;2023-06-24T10:20:03;7.75;;;4.62;;
24637;SDS011;12773;50.162;8.548;2023-06-24T10:22:51;7.58;;;4.90;;
24637;SDS011;12773;50.162;8.548;2023-06-24T10:25:39;6.62;;;4.67;;
24637;SDS011;12773;50.162;8.548;2023-06-24T10:28:26;7.92;;;5.00;;
24637;SDS011;12773;50.162;8.548;2023-06-24T10:31:15;5.67;;;4.72;;
24637;SDS011;12773;50.162;8.548;2023-06-24T10:34:03;7.72;;;5.10;;
24637;SDS011;12773;50.162;8.548;2023-06-24T10:37:13;7.83;;;4.90;;
24637;SDS011;12773;50.162;8.548;2023-06-24T10:40:02;5.85;;;5.05;;
24637;SDS011;12773;50.162;8.548;2023-06-24T10:42:51;9.03;;;5.65;;
24637;SDS011;12773;50.162;8.548;2023-06-24T10:45:39;9.03;;;4.47;;
24637;SDS011;12773;50.162;8.548;2023-06-24T10:48:30;6.75;;;4.55;;
24637;SDS011;12773;50.162;8.548;2023-06-24T10:51:19;6.33;;;4.40;;
24637;SDS011;12773;50.162;8.548;2023-06-24T10:54:06;7.35;;;4.62;;
24637;SDS011;12773;50.162;8.548;2023-06-24T10:56:54;7.22;;;5.00;;
24637;SDS011;12773;50.162;8.548;2023-06-24T10:59:42;6.80;;;4.90;;
24637;SDS011;12773;50.162;8.548;2023-06-24T11:02:31;5.45;;;4.50;;
24637;SDS011;12773;50.162;8.548;2023-06-24T11:05:18;6.17;;;4.65;;
24637;SDS011;12773;50.162;8.548;2023-06-24T11:08:06;5.92;;;4.47;;
24637;SDS011;12773;50.162;8.548;2023-06-24T11:10:53;5.97;;;4.95;;
24637;SDS011;12773;50.162;8.548;2023-06-24T11:13:41;6.62;;;4.87;;
24637;SDS011;12773;50.162;8.548;2023-06-24T11:16:29;6.03;;;4.78;;
24637;SDS011;12773;50.162;8.548;2023-06-24T11:19:17;6.08;;;4.42;;
24637;SDS011;12773;50.162;8.548;2023-06-24T11:22:05;17.75;;;5.35;;
24637;SDS011;12773;50.162;8.548;2023-06-24T11:24:54;5.17;;;4.42;;
24637;SDS011;12773;50.162;8.548;2023-06-24T11:27:42;5.60;;;4.55;;
24637;SDS011;12773;50.162;8.548;2023-06-24T11:30:33;6.35;;;4.60;;
24637;SDS011;12773;50.162;8.548;2023-06-24T11:33:28;8.10;;;5.22;;
24637;SDS011;12773;50.162;8.548;2023-06-24T11:36:19;5.50;;;4.83;;
24637;SDS011;12773;50.162;8.548;2023-06-24T11:39:07;4.85;;;4.15;;
24637;SDS011;12773;50.162;8.548;2023-06-24T11:41:57;7.50;;;4.75;;
24637;SDS011;12773;50.162;8.548;2023-06-24T11:44:44;8.48;;;5.80;;
24637;SDS011;12773;50.162;8.548;2023-06-24T11:47:32;5.30;;;4.53;;
24637;SDS011;12773;50.162;8.548;2023-06-24T11:50:25;8.90;;;4.28;;
24637;SDS011;12773;50.162;8.548;2023-06-24T11:53:14;7.60;;;4.47;;
24637;SDS011;12773;50.162;8.548;2023-06-24T11:56:01;5.70;;;4.87;;
24637;SDS011;12773;50.162;8.548;2023-06-24T11:58:48;6.35;;;4.22;;
24637;SDS011;12773;50.162;8.548;2023-06-24T12:01:36;6.35;;;5.00;;
24637;SDS011;12773;50.162;8.548;2023-06-24T12:04:28;5.05;;;4.53;;
24637;SDS011;12773;50.162;8.548;2023-06-24T12:07:17;7.37;;;4.75;;
24637;SDS011;12773;50.162;8.548;2023-06-24T12:10:04;4.92;;;4.40;;
24637;SDS011;12773;50.162;8.548;2023-06-24T12:12:53;9.53;;;4.85;;
24637;SDS011;12773;50.162;8.548;2023-06-24T12:15:42;7.67;;;4.85;;
24637;SDS011;12773;50.162;8.548;2023-06-24T12:18:29;6.20;;;4.85;;
24637;SDS011;12773;50.162;8.548;2023-06-24T12:21:17;8.30;;;4.90;;
24637;SDS011;12773;50.162;8.548;2023-06-24T12:24:04;8.38;;;5.08;;
24637;SDS011;12773;50.162;8.548;2023-06-24T12:26:53;6.42;;;4.45;;
24637;SDS011;12773;50.162;8.548;2023-06-24T12:29:40;6.00;;;4.87;;
24637;SDS011;12773;50.162;8.548;2023-06-24T12:32:27;7.72;;;4.87;;
24637;SDS011;12773;50.162;8.548;2023-06-24T12:35:15;6.30;;;5.03;;
24637;SDS011;12773;50.162;8.548;2023-06-24T12:38:03;7.65;;;5.05;;
24637;SDS011;12773;50.162;8.548;2023-06-24T12:40:50;8.90;;;4.50;;
24637;SDS011;12773;50.162;8.548;2023-06-24T12:43:38;7.12;;;4.50;;
24637;SDS011;12773;50.162;8.548;2023-06-24T12:46:25;6.72;;;4.47;;
24637;SDS011;12773;50.162;8.548;2023-06-24T12:49:13;7.70;;;4.83;;
24637;SDS011;12773;50.162;8.548;2023-06-24T12:52:01;5.60;;;4.37;;
24637;SDS011;12773;50.162;8.548;2023-06-24T12:54:49;7.17;;;4.55;;
24637;SDS011;12773;50.162;8.548;2023-06-24T12:57:36;4.90;;;4.12;;
24637;SDS011;12773;50.162;8.548;2023-06-24T13:00:24;8.73;;;4.78;;
24637;SDS011;12773;50.162;8.548;2023-06-24T13:03:11;5.58;;;4.92;;
24637;SDS011;12773;50.162;8.548;2023-06-24T13:05:59;7.28;;;5.12;;
24637;SDS011;12773;50.162;8.548;2023-06-24T13:08:47;8.58;;;4.58;;
24637;SDS011;12773;50.162;8.548;2023-06-24T13:11:34;7.37;;;5.22;;
24637;SDS011;12773;50.162;8.548;2023-06-24T13:14:23;6.83;;;4.90;;
24637;SDS011;12773;50.162;8.548;2023-06-24T13:17:12;5.87;;;4.40;;
24637;SDS011;12773;50.162;8.548;2023-06-24T13:19:59;7.60;;;4.83;;
24637;SDS011;12773;50.162;8.548;2023-06-24T13:22:50;4.87;;;4.37;;
24637;SDS011;12773;50.162;8.548;2023-06-24T13:25:37;7.45;;;4.95;;
24637;SDS011;12773;50.162;8.548;2023-06-24T13:28:25;5.33;;;4.15;;
24637;SDS011;12773;50.162;8.548;2023-06-24T13:31:12;10.80;;;4.67;;
24637;SDS011;12773;50.162;8.548;2023-06-24T13:34:01;6.78;;;4.50;;
24637;SDS011;12773;50.162;8.548;2023-06-24T13:36:55;5.85;;;4.33;;
24637;SDS011;12773;50.162;8.548;2023-06-24T13:39:42;5.62;;;4.65;;
24637;SDS011;12773;50.162;8.548;2023-06-24T13:42:30;6.58;;;4.58;;
24637;SDS011;12773;50.162;8.548;2023-06-24T13:45:17;8.50;;;4.65;;
24637;SDS011;12773;50.162;8.548;2023-06-24T13:48:05;6.03;;;4.80;;
24637;SDS011;12773;50.162;8.548;2023-06-24T13:50:53;5.70;;;4.67;;
24637;SDS011;12773;50.162;8.548;2023-06-24T13:53:40;5.22;;;4.67;;
24637;SDS011;12773;50.162;8.548;2023-06-24T13:56:28;5.08;;;4.45;;
24637;SDS011;12773;50.162;8.548;2023-06-24T13:59:15;10.08;;;4.58;;
24637;SDS011;12773;50.162;8.548;2023-06-24T14:02:03;6.97;;;4.72;;
24637;SDS011;12773;50.162;8.548;2023-06-24T14:04:51;5.90;;;4.53;;
24637;SDS011;12773;50.162;8.548;2023-06-24T14:07:39;6.83;;;4.22;;
24637;SDS011;12773;50.162;8.548;2023-06-24T14:10:26;5.47;;;4.53;;
24637;SDS011;12773;50.162;8.548;2023-06-24T14:13:14;5.90;;;4.20;;
24637;SDS011;12773;50.162;8.548;2023-06-24T14:16:02;4.95;;;4.30;;
24637;SDS011;12773;50.162;8.548;2023-06-24T14:18:50;7.15;;;4.97;;
24637;SDS011;12773;50.162;8.548;2023-06-24T14:21:50;5.33;;;3.85;;
24637;SDS011;12773;50.162;8.548;2023-06-24T14:24:37;5.15;;;3.72;;
24637;SDS011;12773;50.162;8.548;2023-06-24T14:27:25;5.53;;;4.03;;
24637;SDS011;12773;50.162;8.548;2023-06-24T14:30:12;6.03;;;4.22;;
24637;SDS011;12773;50.162;8.548;2023-06-24T14:33:00;5.35;;;4.00;;
24637;SDS011;12773;50.162;8.548;2023-06-24T14:35:48;4.28;;;3.80;;
24637;SDS011;12773;50.162;8.548;2023-06-24T14:38:36;4.92;;;4.42;;
24637;SDS011;12773;50.162;8.548;2023-06-24T14:41:24;5.30;;;4.12;;
24637;SDS011;12773;50.162;8.548;2023-06-24T14:44:12;6.20;;;4.58;;
24637;SDS011;12773;50.162;8.548;2023-06-24T14:46:59;5.60;;;4.12;;
24637;SDS011;12773;50.162;8.548;2023-06-24T14:49:47;24.82;;;5.17;;
24637;SDS011;12773;50.162;8.548;2023-06-24T14:52:34;10.55;;;4.33;;
24637;SDS011;12773;50.162;8.548;2023-06-24T14:55:21;7.72;;;4.90;;
24637;SDS011;12773;50.162;8.548;2023-06-24T14:58:09;5.25;;;4.30;;
24637;SDS011;12773;50.162;8.548;2023-06-24T15:00:56;4.90;;;4.37;;
24637;SDS011;12773;50.162;8.548;2023-06-24T15:09:38;5.28;;;4.40;;
24637;SDS011;12773;50.162;8.548;2023-06-24T15:12:25;5.67;;;3.70;;
24637;SDS011;12773;50.162;8.548;2023-06-24T15:15:13;9.00;;;4.33;;
24637;SDS011;12773;50.162;8.548;2023-06-24T15:18:01;6.05;;;4.22;;
24637;SDS011;12773;50.162;8.548;2023-06-24T15:20:49;4.62;;;4.08;;
24637;SDS011;12773;50.162;8.548;2023-06-24T15:23:36;5.05;;;4.47;;
24637;SDS011;12773;50.162;8.548;2023-06-24T15:26:24;8.40;;;7.33;;
24637;SDS011;12773;50.162;8.548;2023-06-24T15:29:11;6.87;;;5.15;;
24637;SDS011;12773;50.162;8.548;2023-06-24T15:31:59;5.00;;;4.35;;
24637;SDS011;12773;50.162;8.548;2023-06-24T15:34:47;4.22;;;3.83;;
24637;SDS011;12773;50.162;8.548;2023-06-24T15:37:35;5.37;;;4.37;;
24637;SDS011;12773;50.162;8.548;2023-06-24T15:40:22;4.80;;;3.90;;
24637;SDS011;12773;50.162;8.548;2023-06-24T15:43:10;5.47;;;4.10;;
24637;SDS011;12773;50.162;8.548;2023-06-24T15:45:57;4.78;;;4.05;;
24637;SDS011;12773;50.162;8.548;2023-06-24T15:48:45;5.22;;;3.95;;
24637;SDS011;12773;50.162;8.548;2023-06-24T15:51:33;5.22;;;3.85;;
24637;SDS011;12773;50.162;8.548;2023-06-24T15:54:20;6.78;;;4.30;;
24637;SDS011;12773;50.162;8.548;2023-06-24T15:57:08;5.10;;;4.20;;
24637;SDS011;12773;50.162;8.548;2023-06-24T15:59:55;4.78;;;3.75;;
24637;SDS011;12773;50.162;8.548;2023-06-24T16:02:43;5.95;;;4.45;;
24637;SDS011;12773;50.162;8.548;2023-06-24T16:05:31;4.50;;;3.87;;
24637;SDS011;12773;50.162;8.548;2023-06-24T16:08:18;5.25;;;3.87;;
24637;SDS011;12773;50.162;8.548;2023-06-24T16:11:07;4.00;;;3.60;;
24637;SDS011;12773;50.162;8.548;2023-06-24T16:13:55;4.50;;;4.08;;
24637;SDS011;12773;50.162;8.548;2023-06-24T16:16:43;4.12;;;3.72;;
24637;SDS011;12773;50.162;8.548;2023-06-24T16:19:30;5.15;;;4.10;;
24637;SDS011;12773;50.162;8.548;2023-06-24T16:22:17;4.20;;;3.80;;
24637;SDS011;12773;50.162;8.548;2023-06-24T16:25:05;5.33;;;4.10;;
24637;SDS011;12773;50.162;8.548;2023-06-24T16:27:53;7.83;;;4.05;;
24637;SDS011;12773;50.162;8.548;2023-06-24T16:30:40;4.65;;;4.00;;
24637;SDS011;12773;50.162;8.548;2023-06-24T16:33:28;3.95;;;3.55;;
24637;SDS011;12773;50.162;8.548;2023-06-24T16:36:15;6.17;;;4.33;;
24637;SDS011;12773;50.162;8.548;2023-06-24T16:39:03;4.75;;;4.12;;
24637;SDS011;12773;50.162;8.548;2023-06-24T16:41:50;4.20;;;3.80;;
24637;SDS011;12773;50.162;8.548;2023-06-24T16:44:38;4.08;;;3.65;;
24637;SDS011;12773;50.162;8.548;2023-06-24T16:47:25;4.28;;;3.87;;
24637;SDS011;12773;50.162;8.548;2023-06-24T16:50:13;5.67;;;3.60;;
24637;SDS011;12773;50.162;8.548;2023-06-24T16:53:01;4.62;;;3.90;;
24637;SDS011;12773;50.162;8.548;2023-06-24T16:55:49;4.40;;;4.00;;
24637;SDS011;12773;50.162;8.548;2023-06-24T16:58:36;6.30;;;4.05;;